createdAt,value
2023-05-14T00:03:42.492Z,17.52
2023-05-14T00:08:47.915Z,15.25
2023-05-14T00:13:53.510Z,17.07
2023-05-14T00:18:58.962Z,14.75
2023-05-14T00:24:04.461Z,20.85
2023-05-14T00:29:09.975Z,12.60
2023-05-14T00:34:15.129Z,16.25
2023-05-14T00:39:20.627Z,15.73
2023-05-14T00:44:25.738Z,20.98
2023-05-14T00:49:31.077Z,18.63
2023-05-14T00:54:37.883Z,18.80
2023-05-14T00:59:44.104Z,13.27
2023-05-14T01:04:49.582Z,14.60
2023-05-14T01:10:03.511Z,14.85
2023-05-14T01:15:28.674Z,17.00
2023-05-14T01:20:34.232Z,23.70
2023-05-14T01:25:39.565Z,13.10
2023-05-14T01:31:11.306Z,14.60
2023-05-14T01:36:35.747Z,15.57
2023-05-14T01:41:41.648Z,23.17
2023-05-14T01:51:55.202Z,13.45
2023-05-14T01:57:00.946Z,13.85
2023-05-14T02:02:06.818Z,23.27
2023-05-14T02:07:13.786Z,28.77
2023-05-14T02:12:19.188Z,16.80
2023-05-14T02:17:24.822Z,21.00
2023-05-14T02:22:30.365Z,30.00
2023-05-14T02:27:35.974Z,20.38
2023-05-14T02:32:44.289Z,17.95
2023-05-14T02:37:50.243Z,14.65
2023-05-14T02:42:55.812Z,15.45
2023-05-14T02:48:01.453Z,12.60
2023-05-14T02:53:07.206Z,20.90
2023-05-14T02:58:18.872Z,17.83
2023-05-14T03:03:32.741Z,22.58
2023-05-14T03:08:38.731Z,16.75
2023-05-14T03:20:16.076Z,14.75
2023-05-14T03:25:21.754Z,15.80
2023-05-14T03:30:27.462Z,16.42
2023-05-14T03:35:36.281Z,16.73
2023-05-14T03:40:42.012Z,17.77
2023-05-14T03:45:57.401Z,17.95
2023-05-14T03:51:03.483Z,13.67
2023-05-14T03:56:09.291Z,18.60
2023-05-14T04:01:14.846Z,15.02
2023-05-14T04:06:20.740Z,15.27
2023-05-14T04:16:31.598Z,16.25
2023-05-14T04:21:37.287Z,12.77
2023-05-14T04:26:45.664Z,13.80
2023-05-14T04:31:56.161Z,16.00
2023-05-14T04:37:01.842Z,16.23
2023-05-14T04:42:08.210Z,13.40
2023-05-14T04:47:13.946Z,14.38
2023-05-14T04:52:19.412Z,13.93
2023-05-14T04:57:24.974Z,15.07
2023-05-14T05:02:30.757Z,17.77
2023-05-14T05:07:39.206Z,13.55
2023-05-14T05:12:50.801Z,19.98
2023-05-14T05:17:56.304Z,18.15
2023-05-14T05:23:02.039Z,15.90
2023-05-14T05:28:07.990Z,13.27
2023-05-14T05:38:24.215Z,17.40
2023-05-14T05:43:30.464Z,12.73
2023-05-14T05:48:36.148Z,17.88
2023-05-14T05:53:41.783Z,16.92
2023-05-14T05:58:47.056Z,18.00
2023-05-14T06:03:52.356Z,16.93
2023-05-14T06:08:57.798Z,19.47
2023-05-14T06:14:03.272Z,17.15
2023-05-14T06:19:10.013Z,17.58
2023-05-14T06:24:15.667Z,11.00
2023-05-14T06:29:21.296Z,15.75
2023-05-14T06:34:26.933Z,14.03
2023-05-14T06:39:32.546Z,13.75
2023-05-14T06:44:38.134Z,13.48
2023-05-14T06:49:43.800Z,14.00
2023-05-14T06:54:49.383Z,15.88
2023-05-14T06:59:55.152Z,15.38
2023-05-14T07:05:21.648Z,10.70
2023-05-14T07:10:32.355Z,14.85
2023-05-14T07:15:38.000Z,20.05
2023-05-14T07:20:43.287Z,14.43
2023-05-14T07:25:58.878Z,15.90
2023-05-14T07:31:10.104Z,14.53
2023-05-14T07:36:16.314Z,16.92
2023-05-14T07:41:22.296Z,14.18
2023-05-14T07:46:37.050Z,15.40
2023-05-14T07:51:43.599Z,14.13
2023-05-14T07:56:49.072Z,13.15
2023-05-14T08:01:54.715Z,12.60
2023-05-14T08:07:00.351Z,15.18
2023-05-14T08:12:05.882Z,17.08
2023-05-14T08:17:11.328Z,18.48
2023-05-14T08:22:17.340Z,13.57
2023-05-14T08:27:23.204Z,15.63
2023-05-14T08:32:29.241Z,14.13
2023-05-14T08:37:35.169Z,14.75
2023-05-14T08:42:43.317Z,18.42
2023-05-14T08:47:53.179Z,14.23
2023-05-14T08:52:59.061Z,18.27
2023-05-14T09:03:09.977Z,17.65
2023-05-14T09:08:15.874Z,15.63
2023-05-14T09:13:21.117Z,17.48
2023-05-14T09:18:27.607Z,14.60
2023-05-14T09:23:38.243Z,14.32
2023-05-14T09:28:45.723Z,11.55
2023-05-14T09:33:55.443Z,17.25
2023-05-14T09:39:02.264Z,15.23
2023-05-14T09:44:08.151Z,17.92
2023-05-14T09:49:13.768Z,9.30
2023-05-14T09:54:19.827Z,14.75
2023-05-14T09:59:25.572Z,17.02
2023-05-14T10:04:31.420Z,16.08
2023-05-14T10:09:39.541Z,16.63
2023-05-14T10:14:51.213Z,14.25
2023-05-14T10:20:00.524Z,16.63
2023-05-14T10:25:07.291Z,16.42
2023-05-14T10:30:19.273Z,16.55
2023-05-14T10:35:26.907Z,19.25
2023-05-14T10:40:33.767Z,18.83
2023-05-14T10:45:47.582Z,16.55
2023-05-14T10:50:57.480Z,15.27
2023-05-14T10:56:23.229Z,22.75
2023-05-14T11:01:30.759Z,18.57
2023-05-14T11:06:37.004Z,19.33
2023-05-14T11:11:42.730Z,18.60
2023-05-14T11:16:49.440Z,18.83
2023-05-14T11:21:55.045Z,20.67
2023-05-14T11:27:01.334Z,20.85
2023-05-14T11:32:09.996Z,17.17
2023-05-14T11:37:17.842Z,17.23
2023-05-14T11:42:25.165Z,17.83
2023-05-14T11:47:34.030Z,31.02
2023-05-14T11:52:49.305Z,21.67
2023-05-14T11:57:59.219Z,22.92
2023-05-14T12:03:08.018Z,25.35
2023-05-14T12:08:30.048Z,29.20
2023-05-14T12:13:39.339Z,21.02
2023-05-14T12:18:45.787Z,22.92
2023-05-14T12:24:02.848Z,27.48
2023-05-14T12:29:08.581Z,26.65
2023-05-14T12:34:17.386Z,27.38
2023-05-14T12:39:23.129Z,32.60
2023-05-14T12:44:29.124Z,29.35
2023-05-14T12:55:33.380Z,34.75
2023-05-14T13:05:44.333Z,29.65
2023-05-14T13:10:50.505Z,33.90
2023-05-14T13:15:57.108Z,24.02
2023-05-14T13:21:20.875Z,29.65
2023-05-14T13:26:28.086Z,24.25
2023-05-14T13:31:34.171Z,37.72
2023-05-14T13:36:41.122Z,31.83
2023-05-14T13:41:47.036Z,39.63
2023-05-14T13:51:58.161Z,37.97
2023-05-14T13:57:12.549Z,39.95
2023-05-14T14:02:25.426Z,30.58
2023-05-14T14:07:42.131Z,32.25
2023-05-14T14:12:56.741Z,33.83
2023-05-14T14:30:36.066Z,28.02
2023-05-14T14:35:42.054Z,32.58
2023-05-14T14:40:48.393Z,31.73
2023-05-14T14:51:34.711Z,28.00
2023-05-14T14:56:40.707Z,29.77
2023-05-14T15:07:53.565Z,28.75
2023-05-14T15:13:01.447Z,27.02
2023-05-14T15:18:07.559Z,32.38
2023-05-14T15:24:17.601Z,28.95
2023-05-14T15:29:23.949Z,24.65
2023-05-14T15:34:29.586Z,28.15
2023-05-14T15:39:40.862Z,28.52
2023-05-14T15:45:03.605Z,28.58
2023-05-14T15:50:17.238Z,27.95
2023-05-14T15:55:22.859Z,28.15
2023-05-14T16:00:37.898Z,30.15
2023-05-14T16:05:46.509Z,34.08
2023-05-14T16:10:52.517Z,28.90
2023-05-14T16:16:05.985Z,32.03
2023-05-14T16:21:18.739Z,33.35
2023-05-14T16:26:44.696Z,33.58
2023-05-14T16:31:50.421Z,31.73
2023-05-14T16:36:56.826Z,28.42
2023-05-14T16:42:03.197Z,33.42
2023-05-14T16:47:09.096Z,27.92
2023-05-14T16:57:23.710Z,30.75
2023-05-14T17:02:29.330Z,37.50
2023-05-14T17:13:15.062Z,34.53
2023-05-14T17:23:31.845Z,28.27
2023-05-14T17:28:39.048Z,27.83
2023-05-14T17:33:44.377Z,26.52
2023-05-14T17:38:50.090Z,27.02
2023-05-14T17:43:55.657Z,23.13
2023-05-14T17:49:18.012Z,27.80
2023-05-14T17:54:30.166Z,25.92
2023-05-14T17:59:36.479Z,24.63
2023-05-14T18:04:42.250Z,23.70
2023-05-14T18:09:48.009Z,29.73
2023-05-14T18:14:53.806Z,27.15
2023-05-14T18:20:00.421Z,27.88
2023-05-14T18:25:05.945Z,31.25
2023-05-14T18:30:16.044Z,27.88
2023-05-14T18:35:21.499Z,25.05
2023-05-14T18:40:27.302Z,25.45
2023-05-14T18:45:33.191Z,25.30
2023-05-14T18:50:39.409Z,25.48
2023-05-14T18:55:44.936Z,25.40
2023-05-14T19:00:50.521Z,25.77
2023-05-14T19:05:56.361Z,26.73
2023-05-14T19:11:01.897Z,27.92
2023-05-14T19:16:07.577Z,29.75
2023-05-14T19:21:13.176Z,30.73
2023-05-14T19:26:18.868Z,29.83
2023-05-14T19:31:24.151Z,31.02
2023-05-14T19:36:33.087Z,32.97
2023-05-14T19:41:38.316Z,31.73
2023-05-14T19:46:43.964Z,25.03
2023-05-14T19:51:49.528Z,29.73
2023-05-14T19:56:56.185Z,30.58
2023-05-14T20:02:01.546Z,30.10
2023-05-14T20:07:06.875Z,32.70
2023-05-14T20:12:14.329Z,38.73
2023-05-14T20:17:19.906Z,32.03
2023-05-14T20:22:25.433Z,27.97
2023-05-14T20:27:31.295Z,31.30
2023-05-14T20:37:45.303Z,29.65
2023-05-14T20:42:51.839Z,36.28
2023-05-14T20:47:57.467Z,29.30
2023-05-14T20:53:02.741Z,32.45
2023-05-14T20:58:09.682Z,28.70
2023-05-14T21:03:15.455Z,27.63
2023-05-14T21:08:21.215Z,28.75
2023-05-14T21:13:26.665Z,26.67
2023-05-14T21:18:34.145Z,34.83
2023-05-14T21:23:39.729Z,39.97
2023-05-14T21:28:45.433Z,59.80
2023-05-14T21:34:02.881Z,73.40
2023-05-14T21:39:08.182Z,88.10
2023-05-14T21:44:13.888Z,50.30
2023-05-14T21:49:19.393Z,50.08
2023-05-14T21:54:25.091Z,51.38
2023-05-14T22:04:36.494Z,46.10
2023-05-14T22:14:46.933Z,42.05
2023-05-14T22:19:52.186Z,39.30
2023-05-14T22:24:58.085Z,37.67
2023-05-14T22:30:03.678Z,38.97
2023-05-14T22:35:09.385Z,35.95
2023-05-14T22:40:15.195Z,31.90
2023-05-14T22:45:20.809Z,35.70
2023-05-14T22:50:26.658Z,39.60
2023-05-14T22:55:32.387Z,31.08
2023-05-14T23:00:37.634Z,36.73
2023-05-14T23:05:43.142Z,30.23
2023-05-14T23:10:48.646Z,37.47
2023-05-14T23:15:54.534Z,32.22
2023-05-14T23:21:00.235Z,30.27
2023-05-14T23:26:06.106Z,36.78
2023-05-14T23:31:12.127Z,28.63
2023-05-14T23:41:23.385Z,34.58
2023-05-14T23:46:30.011Z,28.77
2023-05-14T23:51:35.735Z,28.88
2023-05-14T23:56:41.776Z,30.30
